Valor — WDG9853 — position and weather

sailwx.info

Track history (hours):
 
Tides and Currents Weather Stations Pressure Air Temp Water Temp Dewpoint Dewpoint Depression Visibility Wind Speed Wind Dir Waves Ship Positions

Valor

Owner: Enterprise Marine Services, LLC, San Antonio, TX. More information available from US FCC via Universal Licensing System and Coast Guard Vessel Documentation Center.

Last reported at 2017-Nov-16 13:41 UTC. Time now 2017-Nov-21 15:41 UTC.
Position N 29°58' W 093°51'.

Length 29 m; draft 3.2 m.

Type: Towing. MMSI: 367591810.

Date/timePositionNaut miles runAvg speedWind from/ knotsBaromVisibWave heightAir tempDewpointWater temp
2017-Nov-16 13:41N 29°58' W 093°51'0 0.0
2017-Nov-16 13:30N 29°58' W 093°51'0 0.0
2017-Nov-16 11:38N 29°58' W 093°51'0 0.0
2017-Nov-16 11:25N 29°58' W 093°51'0 0.0
2017-Nov-16 10:49N 29°58' W 093°51'0 0.0
2017-Nov-16 10:25N 29°58' W 093°51'0 0.0
2017-Nov-16 10:00N 29°58' W 093°51'0 0.0
2017-Nov-16 09:29N 29°58' W 093°51'0 0.0
2017-Nov-16 08:58N 29°58' W 093°51'60 3.2
2017-Nov-15 13:54N 29°29' W 094°52'4 8.5
2017-Nov-15 13:28N 29°32' W 094°54'4 8.1
2017-Nov-15 13:00N 29°35' W 094°56'4 8.0
2017-Nov-15 12:31N 29°39' W 094°58'4 7.7
2017-Nov-15 12:00N 29°42' W 095°00'3 6.3
2017-Nov-15 11:29N 29°44' W 095°03'0 0.0
2017-Nov-14 18:17N 29°44' W 095°03'3 2.3
2017-Nov-14 16:50N 29°47' W 095°04'2 0.1
2017-Nov-14 00:41N 29°46' W 095°06'  
2017-Nov-11 14:09N 29°45' W 095°04'1 6.8
2017-Nov-11 14:00N 29°44' W 095°03'3 5.9
2017-Nov-11 13:31N 29°42' W 095°01'3 6.6
2017-Nov-11 13:00N 29°40' W 094°58'4 7.4
2017-Nov-11 12:30N 29°36' W 094°57'4 7.3
2017-Nov-11 12:00N 29°33' W 094°55'61 2.2
2017-Nov-10 07:56N 29°58' W 093°51'  
Track history (hours):
 
Tides and Currents Weather Stations Pressure Air Temp Water Temp Dewpoint Dewpoint Depression Visibility Wind Speed Wind Dir Waves Ship Positions

Valor

Owner: Enterprise Marine Services, LLC, San Antonio, TX. More information available from US FCC via Universal Licensing System and Coast Guard Vessel Documentation Center.

Last reported at 2017-Nov-16 13:41 UTC. Time now 2017-Nov-21 15:41 UTC.
Position N 29°58' W 093°51'.

Length 29 m; draft 3.2 m.

Type: Towing. MMSI: 367591810.

Date/timePositionNaut miles runAvg speedWind from/ knotsBaromVisibWave heightAir tempDewpointWater temp
2017-Nov-16 13:41N 29°58' W 093°51'0 0.0
2017-Nov-16 13:30N 29°58' W 093°51'0 0.0
2017-Nov-16 11:38N 29°58' W 093°51'0 0.0
2017-Nov-16 11:25N 29°58' W 093°51'0 0.0
2017-Nov-16 10:49N 29°58' W 093°51'0 0.0
2017-Nov-16 10:25N 29°58' W 093°51'0 0.0
2017-Nov-16 10:00N 29°58' W 093°51'0 0.0
2017-Nov-16 09:29N 29°58' W 093°51'0 0.0
2017-Nov-16 08:58N 29°58' W 093°51'60 3.2
2017-Nov-15 13:54N 29°29' W 094°52'4 8.5
2017-Nov-15 13:28N 29°32' W 094°54'4 8.1
2017-Nov-15 13:00N 29°35' W 094°56'4 8.0
2017-Nov-15 12:31N 29°39' W 094°58'4 7.7
2017-Nov-15 12:00N 29°42' W 095°00'3 6.3
2017-Nov-15 11:29N 29°44' W 095°03'0 0.0
2017-Nov-14 18:17N 29°44' W 095°03'3 2.3
2017-Nov-14 16:50N 29°47' W 095°04'2 0.1
2017-Nov-14 00:41N 29°46' W 095°06'  
2017-Nov-11 14:09N 29°45' W 095°04'1 6.8
2017-Nov-11 14:00N 29°44' W 095°03'3 5.9
2017-Nov-11 13:31N 29°42' W 095°01'3 6.6
2017-Nov-11 13:00N 29°40' W 094°58'4 7.4
2017-Nov-11 12:30N 29°36' W 094°57'4 7.3
2017-Nov-11 12:00N 29°33' W 094°55'61 2.2
2017-Nov-10 07:56N 29°58' W 093°51'  

Dump ship's entire track history